createdAt,value
2019-01-24T04:01:08.493Z,979.10
2019-01-24T04:02:10.323Z,979.13
2019-01-24T04:03:09.187Z,979.12
2019-01-24T04:04:08.815Z,979.15
2019-01-24T04:05:11.966Z,979.09
2019-01-24T04:06:09.089Z,979.13
2019-01-24T04:07:09.286Z,979.11
2019-01-24T04:08:09.469Z,979.15
2019-01-24T04:09:09.514Z,979.14
2019-01-24T04:10:09.677Z,979.14
2019-01-24T04:11:09.931Z,979.13
2019-01-24T04:12:10.064Z,979.12
2019-01-24T04:13:10.220Z,979.14
2019-01-24T04:14:10.350Z,979.14
2019-01-24T04:15:10.488Z,979.13
2019-01-24T04:16:10.581Z,979.15
2019-01-24T04:17:10.821Z,979.16
2019-01-24T04:18:10.969Z,979.14
2019-01-24T04:19:11.136Z,979.15
2019-01-24T04:20:11.275Z,979.13
2019-01-24T04:21:11.405Z,979.13
2019-01-24T04:22:11.536Z,979.16
2019-01-24T04:23:11.780Z,979.17
2019-01-24T04:24:11.871Z,979.18
2019-01-24T04:25:12.073Z,979.17
2019-01-24T04:26:12.239Z,979.17
2019-01-24T04:27:12.374Z,979.15
2019-01-24T04:28:12.548Z,979.11
2019-01-24T04:29:12.668Z,979.10
2019-01-24T04:30:12.825Z,979.12
2019-01-24T04:31:13.038Z,979.11
2019-01-24T04:32:13.131Z,979.06
2019-01-24T04:33:13.295Z,979.08
2019-01-24T04:34:13.460Z,979.10
2019-01-24T04:35:19.780Z,979.15
2019-01-24T04:36:14.422Z,979.15
2019-01-24T04:37:13.838Z,979.18
2019-01-24T04:38:13.998Z,979.21
2019-01-24T04:39:14.232Z,979.20
2019-01-24T04:40:14.295Z,979.22
2019-01-24T04:41:14.477Z,979.25
2019-01-24T04:42:14.714Z,979.24
2019-01-24T04:43:14.791Z,979.22
2019-01-24T04:44:14.929Z,979.24
2019-01-24T04:45:15.117Z,979.20
2019-01-24T04:46:15.261Z,979.23
2019-01-24T04:47:15.423Z,979.20
2019-01-24T04:48:15.606Z,979.22
2019-01-24T04:49:15.678Z,979.22
2019-01-24T04:50:15.862Z,979.15
2019-01-24T04:51:16.104Z,979.18
2019-01-24T04:52:16.207Z,979.16
2019-01-24T04:53:16.431Z,979.14
2019-01-24T04:54:16.491Z,979.16
2019-01-24T04:55:16.639Z,979.18
2019-01-24T04:56:17.082Z,979.20
2019-01-24T04:57:17.013Z,979.21
2019-01-24T04:58:17.092Z,979.19
2019-01-24T04:59:17.301Z,979.19
2019-01-24T05:00:17.564Z,979.14
2019-01-24T05:01:17.602Z,979.16
2019-01-24T05:02:18.109Z,979.21
2019-01-24T05:03:18.098Z,979.20
2019-01-24T05:04:18.172Z,979.20
2019-01-24T05:05:18.442Z,979.22
2019-01-24T05:06:18.439Z,979.22
2019-01-24T05:07:18.630Z,979.25
2019-01-24T05:08:18.661Z,979.23
2019-01-24T05:09:18.871Z,979.25
2019-01-24T05:10:19.062Z,979.24
2019-01-24T05:11:19.193Z,979.28
2019-01-24T05:12:19.322Z,979.25
2019-01-24T05:13:19.545Z,979.27
2019-01-24T05:14:19.675Z,979.27
2019-01-24T05:15:19.749Z,979.30
2019-01-24T05:16:20.025Z,979.29
2019-01-24T05:17:20.167Z,979.31
2019-01-24T05:18:20.297Z,979.31
2019-01-24T05:19:20.407Z,979.31
2019-01-24T05:20:20.567Z,979.26
2019-01-24T05:21:20.720Z,979.32
2019-01-24T05:22:20.816Z,979.32
2019-01-24T05:23:21.078Z,979.30
2019-01-24T05:24:21.156Z,979.36
2019-01-24T05:25:21.368Z,979.36
2019-01-24T05:26:21.568Z,979.31
2019-01-24T05:27:21.747Z,979.32
2019-01-24T05:28:21.850Z,979.27
2019-01-24T05:29:22.009Z,979.31
2019-01-24T05:30:22.172Z,979.32
2019-01-24T05:31:22.310Z,979.32
2019-01-24T05:32:22.452Z,979.30
2019-01-24T05:33:22.634Z,979.34
2019-01-24T05:34:22.730Z,979.38
2019-01-24T05:35:23.004Z,979.41
2019-01-24T05:36:23.115Z,979.41
2019-01-24T05:37:23.310Z,979.42
2019-01-24T05:38:23.663Z,979.44
2019-01-24T05:39:23.660Z,979.47
2019-01-24T05:40:23.839Z,979.52
2019-01-24T05:41:23.879Z,979.51
2019-01-24T05:42:24.193Z,979.54
2019-01-24T05:43:24.211Z,979.56
2019-01-24T05:44:24.386Z,979.60
2019-01-24T05:45:24.519Z,979.61
2019-01-24T05:46:24.675Z,979.61
2019-01-24T05:47:24.863Z,979.67
2019-01-24T05:48:24.934Z,979.68
2019-01-24T05:49:25.230Z,979.69
2019-01-24T05:50:25.354Z,979.71
2019-01-24T05:51:25.485Z,979.73
2019-01-24T05:52:25.668Z,979.72
2019-01-24T05:53:25.804Z,979.73
2019-01-24T05:54:25.934Z,979.74
2019-01-24T05:55:26.153Z,979.74
2019-01-24T05:56:26.388Z,979.72
2019-01-24T05:57:26.505Z,979.73
2019-01-24T05:58:26.691Z,979.75
2019-01-24T05:59:26.923Z,979.73
2019-01-24T06:00:27.066Z,979.73
2019-01-24T06:01:27.100Z,979.78
2019-01-24T06:02:27.317Z,979.79
2019-01-24T06:03:27.575Z,979.81
2019-01-24T06:04:27.695Z,979.75
2019-01-24T06:05:27.876Z,979.78
2019-01-24T06:06:28.015Z,979.76
2019-01-24T06:07:28.197Z,979.77
2019-01-24T06:08:28.315Z,979.78
2019-01-24T06:09:28.442Z,979.80
2019-01-24T06:10:28.621Z,979.81
2019-01-24T06:11:28.718Z,979.84
2019-01-24T06:12:28.940Z,979.79
2019-01-24T06:13:29.027Z,979.84
2019-01-24T06:14:29.218Z,979.85
2019-01-24T06:15:29.408Z,979.84
2019-01-24T06:16:29.519Z,979.83
2019-01-24T06:17:29.619Z,979.87
2019-01-24T06:18:29.739Z,979.87
2019-01-24T06:19:29.913Z,979.94
2019-01-24T06:20:30.038Z,979.92
2019-01-24T06:21:30.235Z,979.90
2019-01-24T06:22:30.376Z,979.91
2019-01-24T06:23:30.629Z,979.93
2019-01-24T06:24:30.729Z,979.90
2019-01-24T06:25:30.973Z,979.93
2019-01-24T06:26:31.052Z,979.93
2019-01-24T06:27:31.209Z,979.95
2019-01-24T06:28:31.285Z,979.91
2019-01-24T06:29:31.470Z,979.94
2019-01-24T06:30:31.618Z,979.95
2019-01-24T06:31:31.830Z,979.92
2019-01-24T06:32:31.879Z,979.96
2019-01-24T06:33:32.163Z,980.02
2019-01-24T06:34:32.236Z,979.98
2019-01-24T06:35:32.466Z,979.98
2019-01-24T06:36:32.655Z,980.01
2019-01-24T06:37:32.852Z,980.01
2019-01-24T06:38:32.943Z,980.00
2019-01-24T06:39:33.187Z,980.02
2019-01-24T06:40:33.232Z,980.03
2019-01-24T06:41:33.526Z,980.07
2019-01-24T06:42:33.648Z,980.05
2019-01-24T06:43:33.959Z,980.08
2019-01-24T06:44:33.941Z,980.06
2019-01-24T06:45:34.096Z,980.06
2019-01-24T06:46:34.237Z,980.06
2019-01-24T06:47:34.324Z,980.07
2019-01-24T06:48:34.937Z,980.07
2019-01-24T06:49:34.734Z,980.12
2019-01-24T06:50:34.886Z,980.12
2019-01-24T06:51:35.015Z,980.13
2019-01-24T06:52:35.126Z,980.13
2019-01-24T06:53:35.349Z,980.09
2019-01-24T06:54:35.415Z,980.13
2019-01-24T06:55:35.583Z,980.14
2019-01-24T06:56:36.028Z,980.14
2019-01-24T06:57:35.985Z,980.09
2019-01-24T06:58:36.116Z,980.11
2019-01-24T06:59:36.268Z,980.13
2019-01-24T07:00:36.564Z,980.13
2019-01-24T07:01:36.734Z,980.13
2019-01-24T07:02:36.931Z,980.17
2019-01-24T07:04:38.390Z,980.18
2019-01-24T07:05:37.366Z,980.24
2019-01-24T07:06:37.603Z,980.22
2019-01-24T07:07:37.995Z,980.25
2019-01-24T07:08:38.036Z,980.29
2019-01-24T07:09:38.063Z,980.29
2019-01-24T07:10:38.252Z,980.32
2019-01-24T07:11:38.364Z,980.32
2019-01-24T07:12:38.535Z,980.31
2019-01-24T07:13:38.780Z,980.30
2019-01-24T07:14:38.920Z,980.33
2019-01-24T07:15:39.087Z,980.25
2019-01-24T07:16:39.244Z,980.32
2019-01-24T07:17:39.475Z,980.30
2019-01-24T07:18:39.533Z,980.32
2019-01-24T07:19:39.713Z,980.34
2019-01-24T07:20:39.790Z,980.37
2019-01-24T07:21:40.062Z,980.36
2019-01-24T07:22:40.207Z,980.38
2019-01-24T07:23:40.353Z,980.38
2019-01-24T07:24:40.509Z,980.39
2019-01-24T07:25:40.723Z,980.35
2019-01-24T07:26:40.913Z,980.37
2019-01-24T07:27:41.036Z,980.38
2019-01-24T07:28:41.280Z,980.38
2019-01-24T07:29:41.387Z,980.42
2019-01-24T07:30:41.528Z,980.38
2019-01-24T07:31:42.440Z,980.38
2019-01-24T07:32:41.840Z,980.43
2019-01-24T07:33:42.080Z,980.39
2019-01-24T07:34:42.208Z,980.40
2019-01-24T07:35:42.402Z,980.41
2019-01-24T07:36:42.438Z,980.47
2019-01-24T07:37:42.896Z,980.45
2019-01-24T07:38:42.965Z,980.46
2019-01-24T07:39:43.055Z,980.46
2019-01-24T07:40:58.679Z,980.50
2019-01-24T07:41:45.139Z,980.56
2019-01-24T07:42:45.249Z,980.58
2019-01-24T07:43:44.434Z,980.61
2019-01-24T07:44:43.793Z,980.60
2019-01-24T07:45:43.978Z,980.62
2019-01-24T07:46:44.066Z,980.62
2019-01-24T07:47:44.296Z,980.68
2019-01-24T07:48:44.381Z,980.68
2019-01-24T07:49:44.645Z,980.71
2019-01-24T07:50:44.785Z,980.74
2019-01-24T07:51:44.893Z,980.73
2019-01-24T07:52:45.060Z,980.68
2019-01-24T07:53:45.188Z,980.75
2019-01-24T07:54:45.489Z,980.75
2019-01-24T07:55:45.612Z,980.74
2019-01-24T07:56:45.756Z,980.73
2019-01-24T07:57:45.847Z,980.78
2019-01-24T07:58:46.020Z,980.74
2019-01-24T07:59:46.178Z,980.75
2019-01-24T08:00:46.309Z,980.74
2019-01-24T08:01:46.414Z,980.77
2019-01-24T08:02:46.670Z,980.74
2019-01-24T08:03:46.765Z,980.78
2019-01-24T08:04:46.898Z,980.78
2019-01-24T08:05:47.153Z,980.78
2019-01-24T08:06:47.246Z,980.80
2019-01-24T08:07:47.455Z,980.76
2019-01-24T08:08:47.593Z,980.74
2019-01-24T08:09:47.754Z,980.73
2019-01-24T08:10:47.951Z,980.78
2019-01-24T08:11:48.045Z,980.79
2019-01-24T08:12:48.217Z,980.74
2019-01-24T08:13:48.366Z,980.75
2019-01-24T08:14:48.589Z,980.80
2019-01-24T08:15:48.743Z,980.81
2019-01-24T08:16:48.871Z,980.75
2019-01-24T08:17:49.010Z,980.83
2019-01-24T08:18:49.223Z,980.81
2019-01-24T08:19:49.324Z,980.81
2019-01-24T08:20:49.501Z,980.80
2019-01-24T08:21:49.670Z,980.85
2019-01-24T08:22:49.867Z,980.86
2019-01-24T08:23:49.963Z,980.86
2019-01-24T08:24:50.116Z,980.83
2019-01-24T08:25:50.255Z,980.82
2019-01-24T08:26:50.407Z,980.82
2019-01-24T08:27:50.516Z,980.86
2019-01-24T08:28:50.732Z,980.80
2019-01-24T08:29:50.871Z,980.82
2019-01-24T08:30:51.065Z,980.84
2019-01-24T08:31:51.248Z,980.87
2019-01-24T08:32:51.434Z,980.85
2019-01-24T08:33:51.510Z,980.85
2019-01-24T08:34:51.655Z,980.80
2019-01-24T08:35:51.874Z,980.78
2019-01-24T08:36:52.014Z,980.85
2019-01-24T08:37:52.182Z,980.79
2019-01-24T08:38:52.322Z,980.78
2019-01-24T08:39:52.594Z,980.74
2019-01-24T08:40:52.680Z,980.76
2019-01-24T08:41:52.803Z,980.81
2019-01-24T08:42:53.016Z,980.78
2019-01-24T08:43:53.084Z,980.83
2019-01-24T08:44:53.230Z,980.79
2019-01-24T08:45:53.477Z,980.85
2019-01-24T08:46:53.556Z,980.87
2019-01-24T08:47:53.721Z,980.86
2019-01-24T08:48:53.887Z,980.86
2019-01-24T08:49:54.066Z,980.85
2019-01-24T08:50:54.163Z,980.86
2019-01-24T08:51:54.438Z,980.93
2019-01-24T08:52:54.640Z,980.89
2019-01-24T08:53:54.683Z,980.92
2019-01-24T08:54:54.863Z,980.95
2019-01-24T08:55:55.029Z,980.95
2019-01-24T08:56:55.252Z,980.99
2019-01-24T08:57:55.292Z,980.99
2019-01-24T08:58:55.500Z,980.99
2019-01-24T08:59:55.585Z,981.01
2019-01-24T09:00:55.829Z,980.99
2019-01-24T09:01:56.044Z,981.05
2019-01-24T09:02:56.174Z,981.00
2019-01-24T09:03:56.416Z,981.01
2019-01-24T09:04:57.119Z,981.02
2019-01-24T09:05:56.669Z,981.01
2019-01-24T09:06:56.895Z,981.01
2019-01-24T09:07:56.951Z,981.02
2019-01-24T09:08:57.172Z,981.02
2019-01-24T09:09:57.364Z,981.05
2019-01-24T09:10:57.483Z,981.04
2019-01-24T09:11:57.647Z,981.02
2019-01-24T09:12:57.825Z,981.11
2019-01-24T09:13:57.958Z,981.11
2019-01-24T09:14:58.132Z,981.14
2019-01-24T09:15:58.275Z,981.12
2019-01-24T09:16:58.391Z,981.12
2019-01-24T09:17:58.627Z,981.12
2019-01-24T09:18:58.748Z,981.13
2019-01-24T09:19:58.850Z,981.15
2019-01-24T09:20:59.074Z,981.13
2019-01-24T09:21:59.307Z,981.17
2019-01-24T09:22:59.409Z,981.15
2019-01-24T09:23:59.533Z,981.17
2019-01-24T09:24:59.709Z,981.18
2019-01-24T09:25:59.916Z,981.16
2019-01-24T09:26:59.964Z,981.16
2019-01-24T09:28:00.232Z,981.17
2019-01-24T09:29:00.341Z,981.19
2019-01-24T09:30:00.531Z,981.20
2019-01-24T09:31:00.656Z,981.19
2019-01-24T09:32:00.754Z,981.22
2019-01-24T09:33:01.088Z,981.24
2019-01-24T09:34:01.116Z,981.26
2019-01-24T09:35:01.232Z,981.26
2019-01-24T09:36:01.498Z,981.25
2019-01-24T09:37:01.565Z,981.32
2019-01-24T09:38:01.702Z,981.26
2019-01-24T09:39:01.893Z,981.29
2019-01-24T09:40:02.102Z,981.33
2019-01-24T09:41:02.202Z,981.36
2019-01-24T09:42:02.495Z,981.35
2019-01-24T09:43:02.522Z,981.35
2019-01-24T09:44:02.689Z,981.41
2019-01-24T09:45:02.854Z,981.44
2019-01-24T09:46:02.978Z,981.47
2019-01-24T09:47:03.205Z,981.47
2019-01-24T09:48:03.356Z,981.47
2019-01-24T09:49:03.484Z,981.50
2019-01-24T09:50:03.629Z,981.48
2019-01-24T09:51:03.883Z,981.47
2019-01-24T09:52:03.940Z,981.49
2019-01-24T09:53:04.210Z,981.44
2019-01-24T09:54:04.296Z,981.46
2019-01-24T09:55:04.523Z,981.47
2019-01-24T09:56:05.588Z,981.51
2019-01-24T09:57:04.738Z,981.51
2019-01-24T09:58:04.872Z,981.51
2019-01-24T09:59:05.103Z,981.54
2019-01-24T10:00:05.257Z,981.55
2019-01-24T10:01:05.352Z,981.57
2019-01-24T10:02:05.519Z,981.59
2019-01-24T10:03:05.623Z,981.53
2019-01-24T10:04:05.846Z,981.56
2019-01-24T10:05:06.004Z,981.56
2019-01-24T10:06:06.074Z,981.60
2019-01-24T10:07:06.345Z,981.64
2019-01-24T10:08:06.490Z,981.61
2019-01-24T10:09:06.602Z,981.63
2019-01-24T10:10:06.772Z,981.62
2019-01-24T10:11:06.953Z,981.67
2019-01-24T10:12:07.022Z,981.63
2019-01-24T10:13:07.257Z,981.70
2019-01-24T10:14:07.414Z,981.65
2019-01-24T10:15:07.526Z,981.67
2019-01-24T10:16:07.732Z,981.66
2019-01-24T10:17:07.839Z,981.70
2019-01-24T10:18:08.001Z,981.66
2019-01-24T10:19:08.165Z,981.68
2019-01-24T10:20:08.364Z,981.71
2019-01-24T10:21:08.509Z,981.68
2019-01-24T10:22:08.585Z,981.71
2019-01-24T10:23:08.851Z,981.65
2019-01-24T10:24:08.934Z,981.65
2019-01-24T10:25:09.173Z,981.70
2019-01-24T10:26:09.258Z,981.69
2019-01-24T10:27:09.504Z,981.71
2019-01-24T10:28:09.565Z,981.69
2019-01-24T10:29:09.775Z,981.70
2019-01-24T10:30:09.905Z,981.71
2019-01-24T10:31:10.050Z,981.67
2019-01-24T10:32:10.250Z,981.68
2019-01-24T10:33:10.378Z,981.72
2019-01-24T10:34:10.524Z,981.69
2019-01-24T10:35:10.713Z,981.71
2019-01-24T10:36:10.792Z,981.72
2019-01-24T10:37:11.014Z,981.73
2019-01-24T10:38:11.181Z,981.71
2019-01-24T10:39:11.324Z,981.74
2019-01-24T10:40:11.473Z,981.70
2019-01-24T10:41:11.665Z,981.66
2019-01-24T10:42:11.757Z,981.64
2019-01-24T10:43:11.910Z,981.68
2019-01-24T10:44:12.110Z,981.69
2019-01-24T10:45:12.294Z,981.71
2019-01-24T10:46:12.454Z,981.68
2019-01-24T10:47:12.508Z,981.72
2019-01-24T10:48:12.759Z,981.68
2019-01-24T10:49:12.830Z,981.69
2019-01-24T10:50:13.059Z,981.67
2019-01-24T10:51:13.155Z,981.70
2019-01-24T10:52:13.324Z,981.69
2019-01-24T10:53:13.447Z,981.68
2019-01-24T10:54:13.688Z,981.71
2019-01-24T10:55:13.783Z,981.66
2019-01-24T10:56:13.957Z,981.65
2019-01-24T10:57:14.141Z,981.63
2019-01-24T10:58:14.296Z,981.65
2019-01-24T10:59:14.400Z,981.65
2019-01-24T11:00:14.585Z,981.64
2019-01-24T11:01:14.706Z,981.69
2019-01-24T11:02:14.876Z,981.66
2019-01-24T11:03:15.052Z,981.68
2019-01-24T11:04:15.280Z,981.69
2019-01-24T11:05:15.433Z,981.69
2019-01-24T11:06:15.521Z,981.68
2019-01-24T11:07:15.729Z,981.65
2019-01-24T11:08:15.825Z,981.67
2019-01-24T11:09:16.046Z,981.64
2019-01-24T11:10:16.182Z,981.66
2019-01-24T11:11:16.413Z,981.67
2019-01-24T11:12:16.519Z,981.67
2019-01-24T11:13:16.694Z,981.67
2019-01-24T11:14:16.837Z,981.67
2019-01-24T11:15:17.055Z,981.64
2019-01-24T11:16:17.175Z,981.71
2019-01-24T11:17:17.317Z,981.61
2019-01-24T11:18:17.430Z,981.63
2019-01-24T11:19:17.614Z,981.65
2019-01-24T11:20:17.732Z,981.62
2019-01-24T11:21:18.001Z,981.59
2019-01-24T11:22:18.074Z,981.67
2019-01-24T11:23:18.284Z,981.64
2019-01-24T11:24:18.470Z,981.65
2019-01-24T11:25:18.664Z,981.67
2019-01-24T11:26:18.874Z,981.66
2019-01-24T11:27:18.902Z,981.70
2019-01-24T11:28:19.011Z,981.70
2019-01-24T11:29:19.138Z,981.66
2019-01-24T11:30:19.363Z,981.63
2019-01-24T11:31:19.522Z,981.64
2019-01-24T11:32:19.687Z,981.61
2019-01-24T11:33:19.914Z,981.63
2019-01-24T11:34:19.981Z,981.63
2019-01-24T11:35:20.190Z,981.64
2019-01-24T11:36:20.325Z,981.63
2019-01-24T11:37:20.566Z,981.64
2019-01-24T11:38:20.636Z,981.63
2019-01-24T11:39:20.835Z,981.62
2019-01-24T11:40:21.614Z,981.57
2019-01-24T11:41:21.145Z,981.58
2019-01-24T11:42:21.390Z,981.55
2019-01-24T11:43:21.574Z,981.55
2019-01-24T11:44:22.364Z,981.58
2019-01-24T11:45:21.909Z,981.58
2019-01-24T11:46:22.056Z,981.60
2019-01-24T11:47:22.200Z,981.58
2019-01-24T11:48:22.435Z,981.61
2019-01-24T11:49:22.586Z,981.61
2019-01-24T11:50:22.766Z,981.56
2019-01-24T11:51:22.960Z,981.61
2019-01-24T11:52:23.183Z,981.58
2019-01-24T11:53:23.169Z,981.56
2019-01-24T11:54:23.614Z,981.57
2019-01-24T11:55:23.677Z,981.56
2019-01-24T11:56:24.046Z,981.57
2019-01-24T11:57:24.362Z,981.58
2019-01-24T11:58:24.420Z,981.58
2019-01-24T12:01:34.588Z,981.56
2019-01-24T12:02:39.568Z,981.55
2019-01-24T12:03:36.960Z,981.52
2019-01-24T12:04:34.373Z,981.53
2019-01-24T12:05:34.204Z,981.52
2019-01-24T12:06:35.589Z,981.51
2019-01-24T12:07:35.547Z,981.53
2019-01-24T12:08:36.023Z,981.49
2019-01-24T12:09:35.604Z,981.52
2019-01-24T12:10:35.412Z,981.54
2019-01-24T12:11:34.904Z,981.51
2019-01-24T12:12:35.112Z,981.53
2019-01-24T12:13:33.525Z,981.51
2019-01-24T12:14:34.351Z,981.51
2019-01-24T12:15:33.821Z,981.53
2019-01-24T12:16:35.132Z,981.54
2019-01-24T12:17:34.301Z,981.51
2019-01-24T12:18:34.415Z,981.50
2019-01-24T12:19:35.091Z,981.58
2019-01-24T12:20:35.682Z,981.54
2019-01-24T12:21:35.477Z,981.53
2019-01-24T12:22:35.477Z,981.57
2019-01-24T12:23:36.300Z,981.57
2019-01-24T12:24:35.944Z,981.57
2019-01-24T12:25:36.223Z,981.55
2019-01-24T12:26:35.876Z,981.55
2019-01-24T12:27:36.132Z,981.53
2019-01-24T12:28:36.715Z,981.53
2019-01-24T12:29:37.914Z,981.49
2019-01-24T12:30:36.458Z,981.49
2019-01-24T12:31:51.561Z,981.52
2019-01-24T12:32:44.275Z,981.50
2019-01-24T12:33:45.582Z,981.53
2019-01-24T12:34:55.439Z,981.50
2019-01-24T12:38:02.945Z,981.38
2019-01-24T12:39:02.516Z,981.39
2019-01-24T12:40:04.291Z,981.42
2019-01-24T12:41:04.377Z,981.43
2019-01-24T12:42:02.340Z,981.41
2019-01-24T12:43:01.710Z,981.43
2019-01-24T12:44:02.120Z,981.41
2019-01-24T12:45:04.081Z,981.44
2019-01-24T12:47:03.948Z,981.40
2019-01-24T12:48:05.994Z,981.43
2019-01-24T12:49:03.536Z,981.43
2019-01-24T12:50:04.792Z,981.40
2019-01-24T12:51:03.578Z,981.44
2019-01-24T12:52:04.953Z,981.44
2019-01-24T12:53:02.959Z,981.44
2019-01-24T12:55:03.331Z,981.49
2019-01-24T12:56:03.585Z,981.46
2019-01-24T12:57:02.448Z,981.45
2019-01-24T12:58:03.201Z,981.45
2019-01-24T13:03:21.974Z,981.44
2019-01-24T13:06:31.970Z,981.47
2019-01-24T13:07:30.218Z,981.47
2019-01-24T13:16:45.934Z,981.48
2019-01-24T13:22:37.920Z,981.46
2019-01-24T13:23:33.218Z,981.46
2019-01-24T13:24:34.052Z,981.48
2019-01-24T13:25:34.118Z,981.50
2019-01-24T13:26:33.249Z,981.47
2019-01-24T13:27:33.847Z,981.52
2019-01-24T13:28:33.836Z,981.59
2019-01-24T13:29:33.704Z,981.52
2019-01-24T13:30:32.327Z,981.50
2019-01-24T13:31:33.760Z,981.56
2019-01-24T13:32:32.503Z,981.56
2019-01-24T13:33:32.477Z,981.55
2019-01-24T13:34:33.099Z,981.57
2019-01-24T13:35:33.693Z,981.58
2019-01-24T13:42:27.650Z,981.62
2019-01-24T13:43:28.090Z,981.59
2019-01-24T13:47:32.845Z,981.61
2019-01-24T13:48:32.302Z,981.66
2019-01-24T13:49:32.664Z,981.67
2019-01-24T13:50:33.212Z,981.65
2019-01-24T13:51:32.692Z,981.73
2019-01-24T13:52:33.764Z,981.72
2019-01-24T13:53:33.766Z,981.71
2019-01-24T13:54:33.648Z,981.66
2019-01-24T13:55:33.414Z,981.67
2019-01-24T13:56:33.699Z,981.68
2019-01-24T13:57:33.811Z,981.62
2019-01-24T14:01:57.154Z,981.65
2019-01-24T14:02:30.155Z,981.67
2019-01-24T14:05:12.122Z,981.68
2019-01-24T14:06:12.452Z,981.72
2019-01-24T14:07:25.791Z,981.68
2019-01-24T14:08:13.070Z,981.70
2019-01-24T14:24:31.119Z,982.00
2019-01-24T14:26:31.909Z,982.05
2019-01-24T14:27:31.613Z,982.02
2019-01-24T14:30:13.711Z,982.04
2019-01-24T14:31:14.155Z,982.00
2019-01-24T14:32:12.838Z,982.02
2019-01-24T14:33:12.267Z,982.01
2019-01-24T14:34:12.395Z,982.01
2019-01-24T14:35:12.618Z,982.02
2019-01-24T14:36:12.784Z,982.05
2019-01-24T14:37:12.846Z,982.07
2019-01-24T14:38:13.142Z,982.05
2019-01-24T14:39:13.226Z,982.09
2019-01-24T14:40:13.919Z,982.09
2019-01-24T14:41:13.574Z,982.05
2019-01-24T14:42:13.723Z,982.03
2019-01-24T14:43:13.868Z,982.08
2019-01-24T14:44:14.052Z,982.08
2019-01-24T14:45:14.101Z,982.10
2019-01-24T14:46:14.270Z,982.06
2019-01-24T14:47:14.499Z,982.08
2019-01-24T14:48:14.621Z,982.07
2019-01-24T14:49:14.752Z,982.08
2019-01-24T14:50:14.974Z,982.08
2019-01-24T14:51:15.167Z,982.13
2019-01-24T14:52:15.302Z,982.12
2019-01-24T14:53:15.473Z,982.14
2019-01-24T14:54:15.573Z,982.13
2019-01-24T14:55:15.809Z,982.08
2019-01-24T14:56:15.910Z,982.14
2019-01-24T14:57:16.122Z,982.04
2019-01-24T14:58:16.308Z,982.12
2019-01-24T14:59:16.421Z,982.07
2019-01-24T15:00:16.575Z,982.12
2019-01-24T15:01:16.771Z,982.10
2019-01-24T15:02:16.833Z,982.12
2019-01-24T15:03:17.096Z,982.18
2019-01-24T15:04:17.151Z,982.15
2019-01-24T15:05:17.306Z,982.14
2019-01-24T15:06:17.578Z,982.18
2019-01-24T15:07:17.649Z,982.14
2019-01-24T15:08:17.805Z,982.16
2019-01-24T15:09:18.129Z,982.15
2019-01-24T15:10:18.193Z,982.14
2019-01-24T15:11:18.509Z,982.16
2019-01-24T15:12:18.600Z,982.13
2019-01-24T15:13:18.701Z,982.16
2019-01-24T15:14:18.888Z,982.15
2019-01-24T15:15:19.085Z,982.15
2019-01-24T15:16:19.256Z,982.13
2019-01-24T15:17:19.427Z,982.14
2019-01-24T15:18:19.524Z,982.18
2019-01-24T15:19:19.686Z,982.16
2019-01-24T15:20:19.917Z,982.11
2019-01-24T15:21:20.078Z,982.16
2019-01-24T15:22:20.185Z,982.20
2019-01-24T15:23:20.389Z,982.22
2019-01-24T15:24:20.533Z,982.26
2019-01-24T15:25:20.732Z,982.21
2019-01-24T15:26:20.974Z,982.22
2019-01-24T15:27:21.075Z,982.23
2019-01-24T15:28:21.141Z,982.25
2019-01-24T15:29:21.353Z,982.20
2019-01-24T15:30:21.552Z,982.29
2019-01-24T15:31:21.597Z,982.29
2019-01-24T15:32:21.868Z,982.31
2019-01-24T15:33:22.004Z,982.31
2019-01-24T15:34:22.191Z,982.30
2019-01-24T15:35:22.359Z,982.32
2019-01-24T15:36:22.460Z,982.30
2019-01-24T15:37:22.741Z,982.32
2019-01-24T15:38:22.895Z,982.29
2019-01-24T15:39:22.931Z,982.32
2019-01-24T15:40:23.093Z,982.32
2019-01-24T15:41:23.278Z,982.35
2019-01-24T15:42:23.425Z,982.37
2019-01-24T15:43:23.574Z,982.38
2019-01-24T15:44:23.783Z,982.35
2019-01-24T15:45:23.902Z,982.41
2019-01-24T15:46:24.078Z,982.39
2019-01-24T15:47:24.194Z,982.38
2019-01-24T15:48:24.389Z,982.41
2019-01-24T15:49:24.536Z,982.40
2019-01-24T15:50:24.721Z,982.44
2019-01-24T15:51:24.793Z,982.46
2019-01-24T15:52:24.967Z,982.49
2019-01-24T15:53:25.113Z,982.42
2019-01-24T15:54:25.275Z,982.48
2019-01-24T15:55:25.413Z,982.51
2019-01-24T15:56:25.565Z,982.47
2019-01-24T15:57:25.742Z,982.50
2019-01-24T15:58:25.877Z,982.52
2019-01-24T15:59:26.036Z,982.48
2019-01-24T16:00:26.257Z,982.49
2019-01-24T16:01:26.346Z,982.51
2019-01-24T16:02:26.476Z,982.52
2019-01-24T16:03:26.670Z,982.49
2019-01-24T16:04:26.834Z,982.51
2019-01-24T16:05:27.041Z,982.50
2019-01-24T16:06:27.186Z,982.51
2019-01-24T16:07:27.498Z,982.50
2019-01-24T16:08:27.559Z,982.51
2019-01-24T16:09:27.783Z,982.51
2019-01-24T16:10:27.837Z,982.51
2019-01-24T16:11:28.029Z,982.56
2019-01-24T16:12:28.196Z,982.52
2019-01-24T16:13:28.317Z,982.52
2019-01-24T16:14:28.549Z,982.52
2019-01-24T16:15:28.670Z,982.54
2019-01-24T16:16:28.841Z,982.52
2019-01-24T16:17:29.022Z,982.51
2019-01-24T16:18:29.170Z,982.55
2019-01-24T16:19:29.289Z,982.59
2019-01-24T16:20:29.424Z,982.56
2019-01-24T16:21:29.679Z,982.59
2019-01-24T16:22:29.804Z,982.59
2019-01-24T16:23:29.981Z,982.59
2019-01-24T16:24:30.088Z,982.58
2019-01-24T16:25:30.230Z,982.62
2019-01-24T16:26:30.441Z,982.62
2019-01-24T16:27:30.597Z,982.63
2019-01-24T16:28:30.679Z,982.64
2019-01-24T16:29:30.935Z,982.70
2019-01-24T16:30:31.084Z,982.69
2019-01-24T16:31:31.189Z,982.73
2019-01-24T16:32:31.396Z,982.72
2019-01-24T16:33:31.611Z,982.73
2019-01-24T16:34:31.667Z,982.72
2019-01-24T16:35:31.939Z,982.71
2019-01-24T16:36:32.003Z,982.72
2019-01-24T16:37:32.153Z,982.75
2019-01-24T16:38:32.279Z,982.76
2019-01-24T16:39:32.490Z,982.77
2019-01-24T16:40:32.728Z,982.77
2019-01-24T16:41:32.831Z,982.84
2019-01-24T16:42:32.986Z,982.85
2019-01-24T16:43:33.196Z,982.84
2019-01-24T16:44:33.247Z,982.88
2019-01-24T16:45:33.396Z,982.84
2019-01-24T16:46:33.627Z,982.89
2019-01-24T16:47:33.793Z,982.90
2019-01-24T16:48:33.914Z,982.91
2019-01-24T16:49:34.061Z,982.94
2019-01-24T16:50:34.175Z,982.98
2019-01-24T16:51:34.384Z,982.96
2019-01-24T16:52:34.470Z,982.98
2019-01-24T16:53:34.670Z,983.00
2019-01-24T16:54:34.900Z,983.00
2019-01-24T16:55:34.998Z,982.98
2019-01-24T16:56:35.111Z,982.97
2019-01-24T16:57:35.297Z,983.00
2019-01-24T16:58:35.435Z,982.98
2019-01-24T16:59:35.640Z,982.97
2019-01-24T17:00:35.803Z,983.02
2019-01-24T17:01:36.899Z,983.01
2019-01-24T17:02:36.111Z,983.02
2019-01-24T17:03:36.298Z,983.01
2019-01-24T17:04:36.438Z,983.06
2019-01-24T17:05:36.608Z,983.06
2019-01-24T17:06:36.754Z,983.07
2019-01-24T17:07:36.896Z,983.11
2019-01-24T17:08:37.127Z,983.12
2019-01-24T17:09:37.223Z,983.14
2019-01-24T17:10:37.518Z,983.14
2019-01-24T17:11:37.505Z,983.15
2019-01-24T17:12:37.691Z,983.18
2019-01-24T17:13:37.851Z,983.16
2019-01-24T17:14:38.424Z,983.20
2019-01-24T17:15:38.710Z,983.18
2019-01-24T17:16:38.464Z,983.24
2019-01-24T17:17:38.553Z,983.27
2019-01-24T17:18:38.692Z,983.25
2019-01-24T17:19:38.881Z,983.25
2019-01-24T17:20:39.004Z,983.23
2019-01-24T17:21:39.193Z,983.22
2019-01-24T17:22:39.343Z,983.25
2019-01-24T17:23:39.475Z,983.22
2019-01-24T17:24:39.666Z,983.27
2019-01-24T17:25:39.773Z,983.28
2019-01-24T17:26:39.956Z,983.29
2019-01-24T17:27:46.138Z,983.32
2019-01-24T17:28:40.358Z,983.31
2019-01-24T17:29:40.478Z,983.28